x

Isle Of Shoals, Nh (iosn3) Weather Station

12:00pm - Sat 1st Oct 2016 All times are EDT. -4 hours from GMT.

  • Wind
    23mph, 25mph gusts
  • Air Temp 57°f
  • Sea Pressure 1025.8mb
  • Isle Of Shoals, Nh
  • Isle Of Shoals, Nh

More Historic Weather Station data

Upgrade to MSW Pro to gain access to the past 30 days of data for over 8000 Wavebouys and Weather Stations around the globe.

Join Pro

Comparision Forecast

View Surf forecast
   
Sat 10/01 12:00pm 23 25 mph 1025.8mb 57f
11:00am 24 26 mph 1026.2mb 55f
10:00am 22 24 mph 1026.8mb 55f
9:00am 22 25 mph 1027.1mb 55f
8:00am 21 23 mph 1026.9mb 55f
7:00am 23 25 mph 1027mb 56f
6:00am 23 25 mph 1026.8mb 56f
5:00am 22 25 mph 1026.9mb 56f
4:00am 22 24 mph 1027mb 57f
3:00am 23 25 mph 1027.2mb 57f
2:00am 23 25 mph 1027.9mb 56f
1:00am 23 24 mph 1028mb 56f
12:00am 21 22 mph 1028.6mb 56f
Fri 09/30 11:00pm 21 23 mph 1028.8mb 56f
10:00pm 21 23 mph 1029.4mb 56f
9:00pm 20 22 mph 1029.6mb 56f
8:00pm 23 24 mph 1029.4mb 56f
7:00pm 22 24 mph 1029.3mb 56f
6:00pm 24 26 mph 1029.4mb 56f
5:00pm 23 25 mph 1029.6mb 56f
4:00pm 24 26 mph 1029.6mb 56f
3:00pm 23 25 mph 1030.6mb 56f
2:00pm 23 26 mph 1031mb 56f
1:00pm 23 26 mph 1031.8mb 56f
12:00pm 22 24 mph 1032.1mb 56f
11:00am 21 23 mph 1032.2mb 56f
10:00am 21 24 mph 1032.5mb 56f
9:00am 23 24 mph 1032.2mb 55f
8:00am 24 25 mph 1031.8mb 56f
7:00am 23 25 mph 1031.7mb 56f
6:00am 24 26 mph 1031.5mb 56f
5:00am 23 24 mph 1031.8mb 56f
4:00am 24 28 mph 1031.7mb 56f
3:00am 24 26 mph 1031.6mb 57f
2:00am 22 24 mph 1032.1mb 57f
1:00am 22 24 mph 1032.6mb 57f
12:00am 20 22 mph 1033mb 58f
Thu 09/29 11:00pm 25 28 mph 1032.8mb 58f
10:00pm 22 24 mph 1032.7mb 58f
9:00pm 18 21 mph 1032.7mb 58f
8:00pm 21 22 mph 1032.4mb 57f
7:00pm 20 21 mph 1032.3mb 57f
6:00pm 20 22 mph 1032.3mb 57f
5:00pm 21 22 mph 1032.4mb 57f
4:00pm 21 24 mph 1032.2mb 57f
3:00pm 22 24 mph 1032.2mb 57f
2:00pm 22 23 mph 1032.3mb 56f
1:00pm 22 24 mph 1032.9mb 55f
12:00pm 23 25 mph 1032.6mb 54f
11:00am 23 28 mph 1032.4mb 53f
10:00am 26 29 mph 1032.2mb 53f
9:00am 26 31 mph 1031.6mb 53f
8:00am 24 28 mph 1031.2mb 52f
7:00am 22 25 mph 1030.5mb 53f
6:00am 24 30 mph 1029.7mb 55f
5:00am 25 28 mph 1029.1mb 55f
4:00am 23 28 mph 1028.6mb 56f
3:00am 26 32 mph 1027.8mb 57f
2:00am 32 34 mph 1027.5mb 57f
1:00am 34 38 mph 1027.5mb 58f
12:00am 34 39 mph 1027.4mb 58f
Wed 09/28 11:00pm 39 44 mph 1026.8mb 59f
10:00pm 32 36 mph 1027mb 59f
9:00pm 30 32 mph 1026.5mb 59f
8:00pm 29 33 mph 1025.7mb 59f
7:00pm 28 32 mph 1025.5mb 58f
6:00pm 25 28 mph 1025.3mb 58f
5:00pm 20 23 mph 1025.3mb 57f
4:00pm 28 31 mph 1024.4mb 57f
3:00pm 24 28 mph 1024.9mb 55f
2:00pm 29 31 mph 1024.3mb 55f
1:00pm 29 33 mph 1024.3mb 55f
12:00pm 28 30 mph 1024mb 55f
11:00am 29 32 mph 1023.9mb 55f
10:00am 24 26 mph 1023.9mb 56f
9:00am 25 28 mph 1023.3mb 55f
8:00am 22 25 mph 1022.4mb 56f
7:00am 21 25 mph 1021.6mb 56f
6:00am 25 26 mph 1020.8mb 56f
5:00am 24 25 mph 1020.1mb 58f
4:00am 23 24 mph 1019.3mb 59f
3:00am 22 24 mph 1018.8mb 59f
2:00am 24 25 mph 1018.1mb 60f
1:00am 18 20 mph 1017.6mb 60f
12:00am 14 15 mph 1017mb 61f
Tue 09/27 11:00pm 11 13 mph 1016.4mb 61f
10:00pm 13 15 mph 1015.6mb 61f
9:00pm 11 13 mph 1015mb 62f
8:00pm 11 13 mph 1014.3mb 62f
7:00pm 11 13 mph 1013.2mb 62f
6:00pm 10
mph
1012.8mb 62f